sensor_id;sensor_type;location;lat;lon;timestamp;P1;durP1;ratioP1;P2;durP2;ratioP2
78004;SDS011;67209;51.698;-0.292;2023-11-21T00:01:54;10.40;;;4.72;;
78004;SDS011;67209;51.698;-0.292;2023-11-21T00:04:20;8.95;;;5.10;;
78004;SDS011;67209;51.698;-0.292;2023-11-21T00:06:46;8.30;;;5.20;;
78004;SDS011;67209;51.698;-0.292;2023-11-21T00:09:13;10.18;;;5.85;;
78004;SDS011;67209;51.698;-0.292;2023-11-21T00:11:40;8.68;;;4.72;;
78004;SDS011;67209;51.698;-0.292;2023-11-21T00:14:07;11.70;;;5.20;;
78004;SDS011;67209;51.698;-0.292;2023-11-21T00:16:33;11.70;;;5.68;;
78004;SDS011;67209;51.698;-0.292;2023-11-21T00:18:59;11.85;;;5.53;;
78004;SDS011;67209;51.698;-0.292;2023-11-21T00:21:25;9.65;;;5.47;;
78004;SDS011;67209;51.698;-0.292;2023-11-21T00:23:52;10.98;;;5.22;;
78004;SDS011;67209;51.698;-0.292;2023-11-21T00:26:18;11.05;;;5.82;;
78004;SDS011;67209;51.698;-0.292;2023-11-21T00:28:44;8.80;;;5.15;;
78004;SDS011;67209;51.698;-0.292;2023-11-21T00:31:10;10.30;;;4.78;;
78004;SDS011;67209;51.698;-0.292;2023-11-21T00:33:36;10.63;;;5.22;;
78004;SDS011;67209;51.698;-0.292;2023-11-21T00:36:02;10.52;;;5.18;;
78004;SDS011;67209;51.698;-0.292;2023-11-21T00:38:28;13.25;;;6.05;;
78004;SDS011;67209;51.698;-0.292;2023-11-21T00:40:55;11.48;;;5.78;;
78004;SDS011;67209;51.698;-0.292;2023-11-21T00:43:24;9.07;;;5.15;;
78004;SDS011;67209;51.698;-0.292;2023-11-21T00:45:50;10.93;;;5.28;;
78004;SDS011;67209;51.698;-0.292;2023-11-21T00:48:17;12.95;;;6.68;;
78004;SDS011;67209;51.698;-0.292;2023-11-21T00:50:43;10.52;;;5.72;;
78004;SDS011;67209;51.698;-0.292;2023-11-21T00:53:09;10.57;;;5.68;;
78004;SDS011;67209;51.698;-0.292;2023-11-21T00:55:36;11.13;;;6.38;;
78004;SDS011;67209;51.698;-0.292;2023-11-21T00:58:05;10.00;;;5.32;;
78004;SDS011;67209;51.698;-0.292;2023-11-21T01:00:32;10.18;;;6.28;;
78004;SDS011;67209;51.698;-0.292;2023-11-21T01:02:58;10.52;;;5.35;;
78004;SDS011;67209;51.698;-0.292;2023-11-21T01:05:25;12.43;;;5.57;;
78004;SDS011;67209;51.698;-0.292;2023-11-21T01:07:51;9.75;;;4.80;;
78004;SDS011;67209;51.698;-0.292;2023-11-21T01:10:18;7.45;;;4.45;;
78004;SDS011;67209;51.698;-0.292;2023-11-21T01:12:44;8.73;;;4.63;;
78004;SDS011;67209;51.698;-0.292;2023-11-21T01:15:10;8.15;;;4.40;;
78004;SDS011;67209;51.698;-0.292;2023-11-21T01:17:37;8.95;;;4.50;;
78004;SDS011;67209;51.698;-0.292;2023-11-21T01:20:03;9.02;;;4.18;;
78004;SDS011;67209;51.698;-0.292;2023-11-21T01:22:37;9.88;;;4.70;;
78004;SDS011;67209;51.698;-0.292;2023-11-21T01:25:03;7.32;;;3.88;;
78004;SDS011;67209;51.698;-0.292;2023-11-21T01:27:35;8.93;;;4.10;;
78004;SDS011;67209;51.698;-0.292;2023-11-21T01:30:02;6.80;;;3.88;;
78004;SDS011;67209;51.698;-0.292;2023-11-21T01:32:28;7.40;;;4.00;;
78004;SDS011;67209;51.698;-0.292;2023-11-21T01:34:54;7.18;;;4.13;;
78004;SDS011;67209;51.698;-0.292;2023-11-21T01:37:21;6.90;;;3.17;;
78004;SDS011;67209;51.698;-0.292;2023-11-21T01:39:47;7.18;;;3.75;;
78004;SDS011;67209;51.698;-0.292;2023-11-21T01:42:13;5.72;;;3.05;;
78004;SDS011;67209;51.698;-0.292;2023-11-21T01:44:39;6.80;;;3.00;;
78004;SDS011;67209;51.698;-0.292;2023-11-21T01:47:06;7.82;;;2.65;;
78004;SDS011;67209;51.698;-0.292;2023-11-21T01:49:32;6.43;;;2.88;;
78004;SDS011;67209;51.698;-0.292;2023-11-21T01:51:58;6.28;;;2.78;;
78004;SDS011;67209;51.698;-0.292;2023-11-21T01:54:24;5.28;;;2.58;;
78004;SDS011;67209;51.698;-0.292;2023-11-21T01:56:51;4.57;;;2.60;;
78004;SDS011;67209;51.698;-0.292;2023-11-21T01:59:18;5.57;;;2.78;;
78004;SDS011;67209;51.698;-0.292;2023-11-21T02:01:46;4.70;;;2.50;;
78004;SDS011;67209;51.698;-0.292;2023-11-21T02:04:13;3.83;;;2.13;;
78004;SDS011;67209;51.698;-0.292;2023-11-21T02:06:39;3.85;;;1.80;;
78004;SDS011;67209;51.698;-0.292;2023-11-21T02:09:05;4.50;;;2.10;;
78004;SDS011;67209;51.698;-0.292;2023-11-21T02:11:31;3.30;;;1.58;;
78004;SDS011;67209;51.698;-0.292;2023-11-21T02:14:00;2.67;;;1.48;;
78004;SDS011;67209;51.698;-0.292;2023-11-21T02:16:26;3.92;;;1.73;;
78004;SDS011;67209;51.698;-0.292;2023-11-21T02:18:55;2.58;;;1.48;;
78004;SDS011;67209;51.698;-0.292;2023-11-21T02:21:22;3.03;;;1.60;;
78004;SDS011;67209;51.698;-0.292;2023-11-21T02:23:48;2.75;;;1.52;;
78004;SDS011;67209;51.698;-0.292;2023-11-21T02:26:15;2.47;;;1.50;;
78004;SDS011;67209;51.698;-0.292;2023-11-21T02:28:42;3.60;;;2.25;;
78004;SDS011;67209;51.698;-0.292;2023-11-21T02:31:08;4.15;;;1.67;;
78004;SDS011;67209;51.698;-0.292;2023-11-21T02:33:35;4.32;;;1.80;;
78004;SDS011;67209;51.698;-0.292;2023-11-21T02:36:01;2.95;;;1.88;;
78004;SDS011;67209;51.698;-0.292;2023-11-21T02:38:27;3.42;;;1.80;;
78004;SDS011;67209;51.698;-0.292;2023-11-21T02:40:53;4.45;;;2.25;;
78004;SDS011;67209;51.698;-0.292;2023-11-21T02:43:19;4.13;;;2.10;;
78004;SDS011;67209;51.698;-0.292;2023-11-21T02:45:46;3.55;;;1.83;;
78004;SDS011;67209;51.698;-0.292;2023-11-21T02:48:12;4.10;;;2.05;;
78004;SDS011;67209;51.698;-0.292;2023-11-21T02:50:38;3.88;;;1.95;;
78004;SDS011;67209;51.698;-0.292;2023-11-21T02:53:04;3.65;;;2.10;;
78004;SDS011;67209;51.698;-0.292;2023-11-21T02:55:32;3.75;;;1.98;;
78004;SDS011;67209;51.698;-0.292;2023-11-21T02:58:02;4.20;;;1.90;;
78004;SDS011;67209;51.698;-0.292;2023-11-21T03:00:31;2.50;;;1.83;;
78004;SDS011;67209;51.698;-0.292;2023-11-21T03:02:57;4.38;;;2.13;;
78004;SDS011;67209;51.698;-0.292;2023-11-21T03:05:23;3.13;;;2.13;;
78004;SDS011;67209;51.698;-0.292;2023-11-21T03:07:49;4.07;;;2.05;;
78004;SDS011;67209;51.698;-0.292;2023-11-21T03:10:15;3.65;;;1.88;;
78004;SDS011;67209;51.698;-0.292;2023-11-21T03:12:41;3.35;;;1.75;;
78004;SDS011;67209;51.698;-0.292;2023-11-21T03:15:08;6.55;;;2.40;;
78004;SDS011;67209;51.698;-0.292;2023-11-21T03:17:35;3.55;;;1.80;;
78004;SDS011;67209;51.698;-0.292;2023-11-21T03:20:02;3.20;;;1.70;;
78004;SDS011;67209;51.698;-0.292;2023-11-21T03:22:29;3.05;;;1.73;;
78004;SDS011;67209;51.698;-0.292;2023-11-21T03:24:55;2.55;;;1.20;;
78004;SDS011;67209;51.698;-0.292;2023-11-21T03:27:21;3.35;;;1.45;;
78004;SDS011;67209;51.698;-0.292;2023-11-21T03:29:48;3.13;;;1.25;;
78004;SDS011;67209;51.698;-0.292;2023-11-21T03:32:14;1.98;;;1.20;;
78004;SDS011;67209;51.698;-0.292;2023-11-21T03:34:56;1.30;;;0.80;;
78004;SDS011;67209;51.698;-0.292;2023-11-21T03:37:23;2.20;;;1.05;;
78004;SDS011;67209;51.698;-0.292;2023-11-21T03:39:50;2.78;;;0.93;;
78004;SDS011;67209;51.698;-0.292;2023-11-21T03:42:16;1.58;;;1.05;;
78004;SDS011;67209;51.698;-0.292;2023-11-21T03:44:42;1.38;;;0.73;;
78004;SDS011;67209;51.698;-0.292;2023-11-21T03:47:08;1.95;;;0.82;;
78004;SDS011;67209;51.698;-0.292;2023-11-21T03:49:34;2.05;;;0.82;;
78004;SDS011;67209;51.698;-0.292;2023-11-21T03:52:00;1.63;;;0.93;;
78004;SDS011;67209;51.698;-0.292;2023-11-21T03:54:27;2.70;;;0.82;;
78004;SDS011;67209;51.698;-0.292;2023-11-21T03:56:53;0.93;;;0.63;;
78004;SDS011;67209;51.698;-0.292;2023-11-21T03:59:19;2.63;;;0.75;;
78004;SDS011;67209;51.698;-0.292;2023-11-21T04:01:45;1.25;;;0.75;;
78004;SDS011;67209;51.698;-0.292;2023-11-21T04:04:11;2.10;;;0.80;;
78004;SDS011;67209;51.698;-0.292;2023-11-21T04:06:37;2.42;;;1.05;;
78004;SDS011;67209;51.698;-0.292;2023-11-21T04:09:03;1.65;;;1.17;;
78004;SDS011;67209;51.698;-0.292;2023-11-21T04:11:30;2.03;;;1.30;;
78004;SDS011;67209;51.698;-0.292;2023-11-21T04:13:56;2.20;;;1.40;;
78004;SDS011;67209;51.698;-0.292;2023-11-21T04:16:22;2.67;;;1.23;;
78004;SDS011;67209;51.698;-0.292;2023-11-21T04:18:48;2.88;;;1.20;;
78004;SDS011;67209;51.698;-0.292;2023-11-21T04:21:14;2.55;;;1.20;;
78004;SDS011;67209;51.698;-0.292;2023-11-21T04:23:40;4.38;;;1.40;;
78004;SDS011;67209;51.698;-0.292;2023-11-21T04:26:06;2.38;;;1.30;;
78004;SDS011;67209;51.698;-0.292;2023-11-21T04:28:32;3.95;;;1.75;;
78004;SDS011;67209;51.698;-0.292;2023-11-21T04:30:59;2.78;;;1.58;;
78004;SDS011;67209;51.698;-0.292;2023-11-21T04:33:25;3.40;;;1.70;;
78004;SDS011;67209;51.698;-0.292;2023-11-21T04:35:52;3.03;;;1.98;;
78004;SDS011;67209;51.698;-0.292;2023-11-21T04:38:18;5.07;;;1.85;;
78004;SDS011;67209;51.698;-0.292;2023-11-21T04:40:44;5.70;;;1.55;;
78004;SDS011;67209;51.698;-0.292;2023-11-21T04:43:10;4.22;;;1.83;;
78004;SDS011;67209;51.698;-0.292;2023-11-21T04:45:36;4.65;;;2.10;;
78004;SDS011;67209;51.698;-0.292;2023-11-21T04:48:03;2.78;;;1.50;;
78004;SDS011;67209;51.698;-0.292;2023-11-21T04:50:30;2.58;;;1.30;;
78004;SDS011;67209;51.698;-0.292;2023-11-21T04:52:56;3.28;;;1.55;;
78004;SDS011;67209;51.698;-0.292;2023-11-21T04:55:22;4.63;;;1.15;;
78004;SDS011;67209;51.698;-0.292;2023-11-21T04:57:48;2.88;;;1.42;;
78004;SDS011;67209;51.698;-0.292;2023-11-21T05:00:14;2.30;;;1.33;;
78004;SDS011;67209;51.698;-0.292;2023-11-21T05:02:41;3.88;;;1.50;;
78004;SDS011;67209;51.698;-0.292;2023-11-21T05:05:09;4.22;;;1.65;;
78004;SDS011;67209;51.698;-0.292;2023-11-21T05:07:35;2.83;;;1.60;;
78004;SDS011;67209;51.698;-0.292;2023-11-21T05:10:01;3.97;;;1.35;;
78004;SDS011;67209;51.698;-0.292;2023-11-21T05:12:36;2.95;;;1.70;;
78004;SDS011;67209;51.698;-0.292;2023-11-21T05:15:06;2.58;;;1.55;;
78004;SDS011;67209;51.698;-0.292;2023-11-21T05:17:35;5.25;;;1.60;;
78004;SDS011;67209;51.698;-0.292;2023-11-21T05:20:01;3.55;;;1.40;;
78004;SDS011;67209;51.698;-0.292;2023-11-21T05:22:29;2.67;;;1.40;;
78004;SDS011;67209;51.698;-0.292;2023-11-21T05:24:55;3.58;;;1.33;;
78004;SDS011;67209;51.698;-0.292;2023-11-21T05:27:21;2.45;;;1.42;;
78004;SDS011;67209;51.698;-0.292;2023-11-21T05:29:48;3.50;;;1.50;;
78004;SDS011;67209;51.698;-0.292;2023-11-21T05:32:14;4.15;;;1.38;;
78004;SDS011;67209;51.698;-0.292;2023-11-21T05:34:40;4.45;;;1.60;;
78004;SDS011;67209;51.698;-0.292;2023-11-21T05:37:06;3.88;;;1.58;;
78004;SDS011;67209;51.698;-0.292;2023-11-21T05:39:32;2.38;;;1.00;;
78004;SDS011;67209;51.698;-0.292;2023-11-21T05:41:58;2.60;;;1.10;;
78004;SDS011;67209;51.698;-0.292;2023-11-21T05:44:25;2.38;;;1.15;;
78004;SDS011;67209;51.698;-0.292;2023-11-21T05:46:52;3.60;;;1.20;;
78004;SDS011;67209;51.698;-0.292;2023-11-21T05:49:18;2.67;;;1.40;;
78004;SDS011;67209;51.698;-0.292;2023-11-21T05:51:46;2.90;;;1.17;;
78004;SDS011;67209;51.698;-0.292;2023-11-21T05:54:12;2.08;;;1.08;;
78004;SDS011;67209;51.698;-0.292;2023-11-21T05:56:39;3.47;;;1.33;;
78004;SDS011;67209;51.698;-0.292;2023-11-21T05:59:06;2.78;;;1.20;;
78004;SDS011;67209;51.698;-0.292;2023-11-21T06:01:32;2.58;;;0.98;;
78004;SDS011;67209;51.698;-0.292;2023-11-21T06:03:58;2.05;;;1.38;;
78004;SDS011;67209;51.698;-0.292;2023-11-21T06:06:24;5.75;;;1.73;;
78004;SDS011;67209;51.698;-0.292;2023-11-21T06:08:51;4.85;;;1.60;;
78004;SDS011;67209;51.698;-0.292;2023-11-21T06:11:17;2.20;;;1.25;;
78004;SDS011;67209;51.698;-0.292;2023-11-21T06:13:43;2.50;;;1.20;;
78004;SDS011;67209;51.698;-0.292;2023-11-21T06:16:10;4.85;;;1.73;;
78004;SDS011;67209;51.698;-0.292;2023-11-21T06:18:38;2.30;;;1.15;;
78004;SDS011;67209;51.698;-0.292;2023-11-21T06:21:05;3.53;;;1.13;;
78004;SDS011;67209;51.698;-0.292;2023-11-21T06:23:31;2.30;;;1.23;;
78004;SDS011;67209;51.698;-0.292;2023-11-21T06:25:57;3.88;;;1.50;;
78004;SDS011;67209;51.698;-0.292;2023-11-21T06:28:23;3.80;;;1.13;;
78004;SDS011;67209;51.698;-0.292;2023-11-21T06:30:49;2.10;;;0.98;;
78004;SDS011;67209;51.698;-0.292;2023-11-21T06:33:15;3.85;;;1.23;;
78004;SDS011;67209;51.698;-0.292;2023-11-21T06:35:42;3.10;;;1.20;;
78004;SDS011;67209;51.698;-0.292;2023-11-21T06:38:08;4.63;;;1.20;;
78004;SDS011;67209;51.698;-0.292;2023-11-21T06:40:34;2.28;;;1.15;;
78004;SDS011;67209;51.698;-0.292;2023-11-21T06:43:00;3.10;;;1.38;;
78004;SDS011;67209;51.698;-0.292;2023-11-21T06:45:26;4.13;;;1.50;;
78004;SDS011;67209;51.698;-0.292;2023-11-21T06:47:52;4.15;;;1.50;;
78004;SDS011;67209;51.698;-0.292;2023-11-21T06:50:18;6.35;;;1.88;;
78004;SDS011;67209;51.698;-0.292;2023-11-21T06:52:45;2.17;;;1.02;;
78004;SDS011;67209;51.698;-0.292;2023-11-21T06:55:11;4.75;;;1.67;;
78004;SDS011;67209;51.698;-0.292;2023-11-21T06:57:37;3.15;;;1.30;;
78004;SDS011;67209;51.698;-0.292;2023-11-21T07:00:03;3.88;;;1.40;;
78004;SDS011;67209;51.698;-0.292;2023-11-21T07:02:30;4.32;;;1.52;;
78004;SDS011;67209;51.698;-0.292;2023-11-21T07:04:56;4.28;;;1.45;;
78004;SDS011;67209;51.698;-0.292;2023-11-21T07:07:22;3.05;;;1.40;;
78004;SDS011;67209;51.698;-0.292;2023-11-21T07:09:48;3.13;;;1.40;;
78004;SDS011;67209;51.698;-0.292;2023-11-21T07:12:14;2.97;;;1.15;;
78004;SDS011;67209;51.698;-0.292;2023-11-21T07:14:40;4.07;;;1.20;;
78004;SDS011;67209;51.698;-0.292;2023-11-21T07:17:08;2.92;;;1.20;;
78004;SDS011;67209;51.698;-0.292;2023-11-21T07:19:35;2.75;;;1.27;;
78004;SDS011;67209;51.698;-0.292;2023-11-21T07:22:02;3.95;;;1.25;;
78004;SDS011;67209;51.698;-0.292;2023-11-21T07:24:31;2.75;;;1.30;;
78004;SDS011;67209;51.698;-0.292;2023-11-21T07:26:57;5.05;;;1.45;;
78004;SDS011;67209;51.698;-0.292;2023-11-21T07:29:24;5.18;;;1.10;;
78004;SDS011;67209;51.698;-0.292;2023-11-21T07:31:53;3.85;;;1.20;;
78004;SDS011;67209;51.698;-0.292;2023-11-21T07:34:22;3.22;;;1.23;;
78004;SDS011;67209;51.698;-0.292;2023-11-21T07:36:48;1.95;;;0.88;;
78004;SDS011;67209;51.698;-0.292;2023-11-21T07:39:14;4.38;;;0.98;;
78004;SDS011;67209;51.698;-0.292;2023-11-21T07:41:41;2.72;;;1.20;;
78004;SDS011;67209;51.698;-0.292;2023-11-21T07:44:15;3.15;;;1.08;;
78004;SDS011;67209;51.698;-0.292;2023-11-21T07:46:43;3.05;;;0.98;;
78004;SDS011;67209;51.698;-0.292;2023-11-21T07:49:12;4.70;;;1.00;;
78004;SDS011;67209;51.698;-0.292;2023-11-21T07:51:43;2.22;;;1.02;;
78004;SDS011;67209;51.698;-0.292;2023-11-21T07:54:09;2.30;;;0.90;;
78004;SDS011;67209;51.698;-0.292;2023-11-21T07:56:35;5.32;;;1.00;;
78004;SDS011;67209;51.698;-0.292;2023-11-21T07:59:01;13.63;;;7.22;;
78004;SDS011;67209;51.698;-0.292;2023-11-21T08:01:27;12.90;;;2.20;;
78004;SDS011;67209;51.698;-0.292;2023-11-21T08:03:54;1.95;;;0.82;;
78004;SDS011;67209;51.698;-0.292;2023-11-21T08:06:22;2.28;;;0.80;;
78004;SDS011;67209;51.698;-0.292;2023-11-21T08:08:50;2.25;;;1.00;;
78004;SDS011;67209;51.698;-0.292;2023-11-21T08:11:17;3.83;;;0.80;;
78004;SDS011;67209;51.698;-0.292;2023-11-21T08:13:43;1.55;;;0.65;;
78004;SDS011;67209;51.698;-0.292;2023-11-21T08:16:09;1.80;;;1.30;;
78004;SDS011;67209;51.698;-0.292;2023-11-21T08:18:35;3.17;;;0.88;;
78004;SDS011;67209;51.698;-0.292;2023-11-21T08:21:01;1.67;;;0.77;;
78004;SDS011;67209;51.698;-0.292;2023-11-21T08:23:28;2.53;;;0.80;;
78004;SDS011;67209;51.698;-0.292;2023-11-21T08:25:54;2.58;;;0.75;;
78004;SDS011;67209;51.698;-0.292;2023-11-21T08:28:21;4.90;;;1.08;;
78004;SDS011;67209;51.698;-0.292;2023-11-21T08:30:49;2.33;;;1.02;;
78004;SDS011;67209;51.698;-0.292;2023-11-21T08:33:15;2.10;;;0.73;;
78004;SDS011;67209;51.698;-0.292;2023-11-21T08:35:41;1.65;;;0.82;;
78004;SDS011;67209;51.698;-0.292;2023-11-21T08:38:07;2.05;;;0.85;;
78004;SDS011;67209;51.698;-0.292;2023-11-21T08:40:35;2.50;;;0.82;;
78004;SDS011;67209;51.698;-0.292;2023-11-21T08:43:01;3.50;;;1.10;;
78004;SDS011;67209;51.698;-0.292;2023-11-21T08:45:29;3.20;;;1.13;;
78004;SDS011;67209;51.698;-0.292;2023-11-21T08:47:56;1.95;;;0.73;;
78004;SDS011;67209;51.698;-0.292;2023-11-21T08:50:22;1.88;;;1.40;;
78004;SDS011;67209;51.698;-0.292;2023-11-21T08:52:49;3.00;;;1.67;;
78004;SDS011;67209;51.698;-0.292;2023-11-21T08:55:16;5.35;;;1.20;;
78004;SDS011;67209;51.698;-0.292;2023-11-21T08:57:43;5.38;;;1.35;;
78004;SDS011;67209;51.698;-0.292;2023-11-21T09:00:11;4.47;;;1.00;;
78004;SDS011;67209;51.698;-0.292;2023-11-21T09:02:39;1.30;;;0.80;;
78004;SDS011;67209;51.698;-0.292;2023-11-21T09:05:08;2.00;;;0.93;;
78004;SDS011;67209;51.698;-0.292;2023-11-21T09:07:35;2.15;;;0.98;;
78004;SDS011;67209;51.698;-0.292;2023-11-21T09:10:02;3.55;;;1.15;;
78004;SDS011;67209;51.698;-0.292;2023-11-21T09:12:28;11.35;;;2.00;;
78004;SDS011;67209;51.698;-0.292;2023-11-21T09:14:54;2.63;;;1.50;;
78004;SDS011;67209;51.698;-0.292;2023-11-21T09:17:20;2.58;;;1.10;;
78004;SDS011;67209;51.698;-0.292;2023-11-21T09:19:46;3.10;;;0.90;;
78004;SDS011;67209;51.698;-0.292;2023-11-21T09:22:16;3.00;;;1.23;;
78004;SDS011;67209;51.698;-0.292;2023-11-21T09:24:43;2.33;;;1.42;;
78004;SDS011;67209;51.698;-0.292;2023-11-21T09:27:09;2.40;;;1.48;;
78004;SDS011;67209;51.698;-0.292;2023-11-21T09:29:36;8.75;;;2.03;;
78004;SDS011;67209;51.698;-0.292;2023-11-21T09:32:05;2.55;;;1.42;;
78004;SDS011;67209;51.698;-0.292;2023-11-21T09:34:33;3.10;;;1.50;;
78004;SDS011;67209;51.698;-0.292;2023-11-21T09:37:03;2.47;;;1.58;;
78004;SDS011;67209;51.698;-0.292;2023-11-21T09:39:30;3.28;;;1.50;;
78004;SDS011;67209;51.698;-0.292;2023-11-21T09:41:58;3.05;;;1.50;;
78004;SDS011;67209;51.698;-0.292;2023-11-21T09:44:35;7.07;;;1.73;;
78004;SDS011;67209;51.698;-0.292;2023-11-21T09:47:01;2.42;;;1.40;;
78004;SDS011;67209;51.698;-0.292;2023-11-21T09:49:28;13.50;;;2.10;;
78004;SDS011;67209;51.698;-0.292;2023-11-21T09:52:00;5.70;;;1.50;;
78004;SDS011;67209;51.698;-0.292;2023-11-21T09:54:28;2.80;;;1.33;;
78004;SDS011;67209;51.698;-0.292;2023-11-21T09:56:57;44.22;;;3.85;;
78004;SDS011;67209;51.698;-0.292;2023-11-21T09:59:23;3.30;;;1.48;;
78004;SDS011;67209;51.698;-0.292;2023-11-21T10:01:49;2.17;;;1.13;;
78004;SDS011;67209;51.698;-0.292;2023-11-21T10:04:15;2.22;;;0.95;;
78004;SDS011;67209;51.698;-0.292;2023-11-21T10:06:42;1.63;;;1.00;;
78004;SDS011;67209;51.698;-0.292;2023-11-21T10:09:13;1.42;;;0.90;;
78004;SDS011;67209;51.698;-0.292;2023-11-21T10:11:40;1.63;;;0.82;;
78004;SDS011;67209;51.698;-0.292;2023-11-21T10:14:10;4.47;;;1.05;;
78004;SDS011;67209;51.698;-0.292;2023-11-21T10:16:38;1.70;;;0.95;;
78004;SDS011;67209;51.698;-0.292;2023-11-21T10:19:09;1.38;;;1.15;;
78004;SDS011;67209;51.698;-0.292;2023-11-21T10:21:37;2.63;;;0.85;;
78004;SDS011;67209;51.698;-0.292;2023-11-21T10:24:03;1.08;;;0.70;;
78004;SDS011;67209;51.698;-0.292;2023-11-21T10:26:31;1.73;;;0.70;;
78004;SDS011;67209;51.698;-0.292;2023-11-21T10:29:01;6.85;;;1.25;;
78004;SDS011;67209;51.698;-0.292;2023-11-21T10:31:31;2.28;;;0.88;;
78004;SDS011;67209;51.698;-0.292;2023-11-21T10:34:19;1.40;;;0.77;;
78004;SDS011;67209;51.698;-0.292;2023-11-21T10:36:44;1.65;;;0.73;;
78004;SDS011;67209;51.698;-0.292;2023-11-21T10:39:19;2.70;;;0.85;;
78004;SDS011;67209;51.698;-0.292;2023-11-21T10:41:49;8.70;;;0.88;;
78004;SDS011;67209;51.698;-0.292;2023-11-21T10:44:19;1.80;;;0.68;;
78004;SDS011;67209;51.698;-0.292;2023-11-21T10:46:52;1.95;;;0.63;;
78004;SDS011;67209;51.698;-0.292;2023-11-21T10:49:21;81.57;;;5.65;;
78004;SDS011;67209;51.698;-0.292;2023-11-21T10:51:50;1.60;;;0.75;;
78004;SDS011;67209;51.698;-0.292;2023-11-21T10:54:18;2.13;;;0.70;;
78004;SDS011;67209;51.698;-0.292;2023-11-21T10:56:45;32.05;;;4.40;;
78004;SDS011;67209;51.698;-0.292;2023-11-21T10:59:13;22.05;;;2.55;;
78004;SDS011;67209;51.698;-0.292;2023-11-21T11:01:48;45.75;;;4.13;;
78004;SDS011;67209;51.698;-0.292;2023-11-21T11:04:18;2.08;;;0.80;;
78004;SDS011;67209;51.698;-0.292;2023-11-21T11:06:44;9.05;;;1.38;;
78004;SDS011;67209;51.698;-0.292;2023-11-21T11:09:11;6.68;;;0.98;;
78004;SDS011;67209;51.698;-0.292;2023-11-21T11:11:41;2.45;;;0.77;;
78004;SDS011;67209;51.698;-0.292;2023-11-21T11:14:12;11.82;;;1.65;;
78004;SDS011;67209;51.698;-0.292;2023-11-21T11:16:39;1.35;;;0.43;;
78004;SDS011;67209;51.698;-0.292;2023-11-21T11:19:08;2.28;;;0.70;;
78004;SDS011;67209;51.698;-0.292;2023-11-21T11:24:24;1.45;;;0.30;;
78004;SDS011;67209;51.698;-0.292;2023-11-21T11:27:07;1.10;;;0.40;;
78004;SDS011;67209;51.698;-0.292;2023-11-21T11:29:43;1.83;;;0.50;;
78004;SDS011;67209;51.698;-0.292;2023-11-21T11:37:48;3.55;;;0.68;;
78004;SDS011;67209;51.698;-0.292;2023-11-21T11:40:14;44.70;;;3.97;;
78004;SDS011;67209;51.698;-0.292;2023-11-21T11:42:55;0.80;;;0.60;;
78004;SDS011;67209;51.698;-0.292;2023-11-21T11:45:22;3.80;;;0.77;;
78004;SDS011;67209;51.698;-0.292;2023-11-21T11:47:48;51.10;;;5.15;;
78004;SDS011;67209;51.698;-0.292;2023-11-21T11:50:15;8.65;;;1.13;;
78004;SDS011;67209;51.698;-0.292;2023-11-21T11:52:51;1.63;;;0.73;;
78004;SDS011;67209;51.698;-0.292;2023-11-21T11:55:20;2.03;;;0.95;;
78004;SDS011;67209;51.698;-0.292;2023-11-21T11:57:47;19.08;;;2.00;;
78004;SDS011;67209;51.698;-0.292;2023-11-21T12:00:16;25.55;;;3.63;;
78004;SDS011;67209;51.698;-0.292;2023-11-21T12:02:45;3.72;;;1.15;;
78004;SDS011;67209;51.698;-0.292;2023-11-21T12:05:13;1.77;;;0.95;;
78004;SDS011;67209;51.698;-0.292;2023-11-21T12:07:43;5.43;;;1.75;;
78004;SDS011;67209;51.698;-0.292;2023-11-21T12:10:11;19.67;;;2.75;;
78004;SDS011;67209;51.698;-0.292;2023-11-21T12:12:42;98.20;;;9.20;;
78004;SDS011;67209;51.698;-0.292;2023-11-21T12:15:09;2.20;;;1.00;;
78004;SDS011;67209;51.698;-0.292;2023-11-21T12:17:35;1.10;;;0.52;;
78004;SDS011;67209;51.698;-0.292;2023-11-21T12:20:04;0.93;;;0.40;;
78004;SDS011;67209;51.698;-0.292;2023-11-21T12:22:51;0.82;;;0.30;;
78004;SDS011;67209;51.698;-0.292;2023-11-21T12:25:18;2.63;;;0.20;;
78004;SDS011;67209;51.698;-0.292;2023-11-21T12:27:45;0.57;;;0.10;;
78004;SDS011;67209;51.698;-0.292;2023-11-21T12:30:13;0.22;;;0.10;;
78004;SDS011;67209;51.698;-0.292;2023-11-21T12:32:41;0.73;;;0.30;;
78004;SDS011;67209;51.698;-0.292;2023-11-21T12:35:08;0.70;;;0.20;;
78004;SDS011;67209;51.698;-0.292;2023-11-21T12:37:35;0.77;;;0.30;;
78004;SDS011;67209;51.698;-0.292;2023-11-21T12:40:03;2.50;;;0.20;;
78004;SDS011;67209;51.698;-0.292;2023-11-21T12:42:29;1.90;;;0.38;;
78004;SDS011;67209;51.698;-0.292;2023-11-21T12:48:10;0.93;;;0.22;;
78004;SDS011;67209;51.698;-0.292;2023-11-21T12:50:39;1.63;;;0.40;;
78004;SDS011;67209;51.698;-0.292;2023-11-21T12:53:07;0.20;;;0.20;;
78004;SDS011;67209;51.698;-0.292;2023-11-21T12:55:41;1.13;;;0.20;;
78004;SDS011;67209;51.698;-0.292;2023-11-21T12:58:15;1.35;;;0.30;;
78004;SDS011;67209;51.698;-0.292;2023-11-21T13:00:46;1.55;;;0.20;;
78004;SDS011;67209;51.698;-0.292;2023-11-21T13:03:13;1.30;;;0.15;;
78004;SDS011;67209;51.698;-0.292;2023-11-21T13:05:45;0.47;;;0.10;;
78004;SDS011;67209;51.698;-0.292;2023-11-21T13:08:12;1.23;;;0.40;;
78004;SDS011;67209;51.698;-0.292;2023-11-21T13:10:39;1.95;;;0.30;;
78004;SDS011;67209;51.698;-0.292;2023-11-21T13:13:10;1.58;;;0.43;;
78004;SDS011;67209;51.698;-0.292;2023-11-21T13:15:46;1.20;;;0.30;;
78004;SDS011;67209;51.698;-0.292;2023-11-21T13:18:13;1.00;;;0.20;;
78004;SDS011;67209;51.698;-0.292;2023-11-21T13:20:39;3.88;;;0.60;;
78004;SDS011;67209;51.698;-0.292;2023-11-21T13:23:09;1.40;;;0.30;;
78004;SDS011;67209;51.698;-0.292;2023-11-21T13:28:06;8.50;;;0.77;;
78004;SDS011;67209;51.698;-0.292;2023-11-21T13:30:33;0.90;;;0.30;;
78004;SDS011;67209;51.698;-0.292;2023-11-21T13:33:02;3.70;;;0.60;;
78004;SDS011;67209;51.698;-0.292;2023-11-21T13:35:31;1.90;;;0.57;;
78004;SDS011;67209;51.698;-0.292;2023-11-21T13:38:13;6.47;;;1.10;;
78004;SDS011;67209;51.698;-0.292;2023-11-21T13:40:41;4.20;;;1.00;;
78004;SDS011;67209;51.698;-0.292;2023-11-21T13:43:12;3.25;;;0.60;;
78004;SDS011;67209;51.698;-0.292;2023-11-21T13:45:38;2.28;;;0.70;;
78004;SDS011;67209;51.698;-0.292;2023-11-21T13:48:05;2.33;;;1.00;;
78004;SDS011;67209;51.698;-0.292;2023-11-21T13:50:35;12.48;;;1.48;;
78004;SDS011;67209;51.698;-0.292;2023-11-21T13:53:02;4.32;;;0.82;;
78004;SDS011;67209;51.698;-0.292;2023-11-21T13:55:46;3.00;;;1.00;;
78004;SDS011;67209;51.698;-0.292;2023-11-21T13:58:12;2.10;;;0.45;;
78004;SDS011;67209;51.698;-0.292;2023-11-21T14:00:44;7.15;;;1.20;;
78004;SDS011;67209;51.698;-0.292;2023-11-21T14:03:14;6.50;;;1.42;;
78004;SDS011;67209;51.698;-0.292;2023-11-21T14:05:46;6.40;;;1.98;;
78004;SDS011;67209;51.698;-0.292;2023-11-21T14:08:17;5.57;;;1.27;;
78004;SDS011;67209;51.698;-0.292;2023-11-21T14:10:45;4.93;;;0.95;;
78004;SDS011;67209;51.698;-0.292;2023-11-21T14:13:18;4.43;;;0.80;;
78004;SDS011;67209;51.698;-0.292;2023-11-21T14:15:48;35.17;;;3.10;;
78004;SDS011;67209;51.698;-0.292;2023-11-21T14:18:16;5.50;;;1.08;;
78004;SDS011;67209;51.698;-0.292;2023-11-21T14:20:44;5.25;;;1.17;;
78004;SDS011;67209;51.698;-0.292;2023-11-21T14:23:10;6.28;;;0.82;;
78004;SDS011;67209;51.698;-0.292;2023-11-21T14:25:37;4.75;;;1.00;;
78004;SDS011;67209;51.698;-0.292;2023-11-21T14:28:05;5.95;;;1.10;;
78004;SDS011;67209;51.698;-0.292;2023-11-21T14:30:34;5.55;;;1.25;;
78004;SDS011;67209;51.698;-0.292;2023-11-21T14:33:01;6.60;;;1.45;;
78004;SDS011;67209;51.698;-0.292;2023-11-21T14:35:27;10.50;;;1.40;;
78004;SDS011;67209;51.698;-0.292;2023-11-21T14:37:57;11.77;;;1.50;;
78004;SDS011;67209;51.698;-0.292;2023-11-21T14:40:24;2.83;;;0.93;;
78004;SDS011;67209;51.698;-0.292;2023-11-21T14:42:51;3.78;;;0.98;;
78004;SDS011;67209;51.698;-0.292;2023-11-21T14:45:19;7.88;;;1.10;;
78004;SDS011;67209;51.698;-0.292;2023-11-21T14:47:48;5.47;;;1.10;;
78004;SDS011;67209;51.698;-0.292;2023-11-21T14:50:25;5.18;;;1.50;;